Gulden Leeuw — PCBH — position and weather

sailwx.info

Track history (hours):
 
Tides and Currents Weather Stations Pressure Air Temp Water Temp Dewpoint Dewpoint Depression Visibility Wind Speed Wind Dir Waves Ship Positions

Gulden Leeuw

Last reported at 2018-Apr-27 08:24 UTC. Time now 2018-Apr-27 08:48 UTC.
Position N 38°32' W 028°38'.

Length 57 m; draft 4.2 m.

Type: Sailing vessel. MMSI: 246709000.

Date/timePositionNaut miles runAvg speedWind from/ knotsBaromVisibWave heightAir tempDewpointWater temp
2018-Apr-27 08:24N 38°32' W 028°38'0 0.0
2018-Apr-27 07:57N 38°32' W 028°38'0 0.0
2018-Apr-27 07:30N 38°32' W 028°38'0 0.0
2018-Apr-27 06:39N 38°32' W 028°38'0 0.0
2018-Apr-27 06:30N 38°32' W 028°38'0 0.0
2018-Apr-27 06:00N 38°32' W 028°38'0 0.0
2018-Apr-27 05:27N 38°32' W 028°38'0 0.0
2018-Apr-27 05:00N 38°32' W 028°38'0 0.0
2018-Apr-27 04:24N 38°32' W 028°38'0 0.0
2018-Apr-27 02:30N 38°32' W 028°38'0 0.0
2018-Apr-27 01:51N 38°32' W 028°38'0 0.0
2018-Apr-27 01:15N 38°32' W 028°38'0 0.0
2018-Apr-27 01:00N 38°32' W 028°38'0 0.0
2018-Apr-26 23:12N 38°32' W 028°38'0 0.0
2018-Apr-26 22:45N 38°32' W 028°38'0 0.0
2018-Apr-26 22:21N 38°32' W 028°38'0 0.0
2018-Apr-26 21:51N 38°32' W 028°38'0 0.0
2018-Apr-26 21:24N 38°32' W 028°38'0 0.0
2018-Apr-26 21:00N 38°32' W 028°38'0 0.0
2018-Apr-26 20:30N 38°32' W 028°38'0 0.0
2018-Apr-26 19:48N 38°32' W 028°38'0 0.0
2018-Apr-26 19:27N 38°32' W 028°38'0 0.0
2018-Apr-26 18:42N 38°32' W 028°38'0 0.0
2018-Apr-25 05:24N 38°32' W 028°38'0 0.0
2018-Apr-25 03:05N 38°32' W 028°38'0 0.0
2018-Apr-25 02:59N 38°32' W 028°38'0 0.0
2018-Apr-25 02:21N 38°32' W 028°38'0 0.0
2018-Apr-25 01:53N 38°32' W 028°38'0 0.0
2018-Apr-23 20:02N 38°32' W 028°38'0 0.0
2018-Apr-23 19:56N 38°32' W 028°38'0 0.0
2018-Apr-22 14:33N 38°32' W 028°37'0 0.1
2018-Apr-22 14:21N 38°32' W 028°37'0 0.0
2018-Apr-22 14:00N 38°32' W 028°37'0 0.1
2018-Apr-22 13:30N 38°32' W 028°37'0 0.0
2018-Apr-22 13:00N 38°32' W 028°37'0 0.0
2018-Apr-22 12:30N 38°32' W 028°37'0 0.6
2018-Apr-22 12:00N 38°31' W 028°37'1 1.3
2018-Apr-22 11:29N 38°32' W 028°36'1 1.4
2018-Apr-22 10:54N 38°31' W 028°36'1 1.3
2018-Apr-22 10:29N 38°31' W 028°36'1 0.9
2018-Apr-22 09:50N 38°30' W 028°37'1 3.3
2018-Apr-22 09:28N 38°30' W 028°38'1 1.9
2018-Apr-22 08:57N 38°30' W 028°40'0 0.3
2018-Apr-22 08:30N 38°30' W 028°40'0 0.9
2018-Apr-22 08:00N 38°30' W 028°40'2 3.4
2018-Apr-22 07:30N 38°29' W 028°42'3 5.5
2018-Apr-22 07:00N 38°29' W 028°46'2 5.0
2018-Apr-22 06:30N 38°29' W 028°49'3 5.4
2018-Apr-22 06:00N 38°29' W 028°53'2 4.9
2018-Apr-22 05:30N 38°29' W 028°56'2 4.3
2018-Apr-22 05:00N 38°29' W 028°58'2 3.8
2018-Apr-22 04:30N 38°29' W 029°01'2 3.9
2018-Apr-22 04:00N 38°30' W 029°03'2 4.0
2018-Apr-22 03:30N 38°30' W 029°06'2 3.8
2018-Apr-22 03:00N 38°30' W 029°08'2 4.4
2018-Apr-22 02:30N 38°30' W 029°11'2 4.9
2018-Apr-22 02:00N 38°29' W 029°14'3 5.3
2018-Apr-22 01:30N 38°29' W 029°18'3 6.0
2018-Apr-22 01:00N 38°29' W 029°21'3 5.6
2018-Apr-22 00:30N 38°29' W 029°25'3 5.0
2018-Apr-22 00:00N 38°29' W 029°28'2 4.6
2018-Apr-21 23:30N 38°28' W 029°31'3 5.1
2018-Apr-21 22:59N 38°28' W 029°35'2 5.1
2018-Apr-21 22:30N 38°28' W 029°38'3 5.5
2018-Apr-21 22:00N 38°28' W 029°41'3 5.3
2018-Apr-21 21:28N 38°28' W 029°45'2 4.8
2018-Apr-21 21:00N 38°28' W 029°48'3 5.0
2018-Apr-21 20:29N 38°28' W 029°51'3 5.7
2018-Apr-21 19:56N 38°28' W 029°55'2 5.1
2018-Apr-21 19:28N 38°28' W 029°58'2 4.8
2018-Apr-21 18:58N 38°28' W 030°01'2 4.2
2018-Apr-21 18:29N 38°28' W 030°04'2 4.1
2018-Apr-21 17:57N 38°28' W 030°06'2 3.9
2018-Apr-21 17:28N 38°28' W 030°09'2 4.1
2018-Apr-21 16:51N 38°28' W 030°12'3 6.3
2018-Apr-21 16:23N 38°28' W 030°16'3 6.5
2018-Apr-21 15:58N 38°28' W 030°19'3 6.5
2018-Apr-21 15:28N 38°28' W 030°23'3 6.2
2018-Apr-21 14:55N 38°28' W 030°28'3 6.1
2018-Apr-21 14:30N 38°28' W 030°31'3 5.8
2018-Apr-21 13:57N 38°28' W 030°35'2 3.9
2018-Apr-21 13:29N 38°28' W 030°37'  
Track history (hours):
 
Tides and Currents Weather Stations Pressure Air Temp Water Temp Dewpoint Dewpoint Depression Visibility Wind Speed Wind Dir Waves Ship Positions

Gulden Leeuw

Last reported at 2018-Apr-27 08:24 UTC. Time now 2018-Apr-27 08:48 UTC.
Position N 38°32' W 028°38'.

Length 57 m; draft 4.2 m.

Type: Sailing vessel. MMSI: 246709000.

Date/timePositionNaut miles runAvg speedWind from/ knotsBaromVisibWave heightAir tempDewpointWater temp
2018-Apr-27 08:24N 38°32' W 028°38'0 0.0
2018-Apr-27 07:57N 38°32' W 028°38'0 0.0
2018-Apr-27 07:30N 38°32' W 028°38'0 0.0
2018-Apr-27 06:39N 38°32' W 028°38'0 0.0
2018-Apr-27 06:30N 38°32' W 028°38'0 0.0
2018-Apr-27 06:00N 38°32' W 028°38'0 0.0
2018-Apr-27 05:27N 38°32' W 028°38'0 0.0
2018-Apr-27 05:00N 38°32' W 028°38'0 0.0
2018-Apr-27 04:24N 38°32' W 028°38'0 0.0
2018-Apr-27 02:30N 38°32' W 028°38'0 0.0
2018-Apr-27 01:51N 38°32' W 028°38'0 0.0
2018-Apr-27 01:15N 38°32' W 028°38'0 0.0
2018-Apr-27 01:00N 38°32' W 028°38'0 0.0
2018-Apr-26 23:12N 38°32' W 028°38'0 0.0
2018-Apr-26 22:45N 38°32' W 028°38'0 0.0
2018-Apr-26 22:21N 38°32' W 028°38'0 0.0
2018-Apr-26 21:51N 38°32' W 028°38'0 0.0
2018-Apr-26 21:24N 38°32' W 028°38'0 0.0
2018-Apr-26 21:00N 38°32' W 028°38'0 0.0
2018-Apr-26 20:30N 38°32' W 028°38'0 0.0
2018-Apr-26 19:48N 38°32' W 028°38'0 0.0
2018-Apr-26 19:27N 38°32' W 028°38'0 0.0
2018-Apr-26 18:42N 38°32' W 028°38'0 0.0
2018-Apr-25 05:24N 38°32' W 028°38'0 0.0
2018-Apr-25 03:05N 38°32' W 028°38'0 0.0
2018-Apr-25 02:59N 38°32' W 028°38'0 0.0
2018-Apr-25 02:21N 38°32' W 028°38'0 0.0
2018-Apr-25 01:53N 38°32' W 028°38'0 0.0
2018-Apr-23 20:02N 38°32' W 028°38'0 0.0
2018-Apr-23 19:56N 38°32' W 028°38'0 0.0
2018-Apr-22 14:33N 38°32' W 028°37'0 0.1
2018-Apr-22 14:21N 38°32' W 028°37'0 0.0
2018-Apr-22 14:00N 38°32' W 028°37'0 0.1
2018-Apr-22 13:30N 38°32' W 028°37'0 0.0
2018-Apr-22 13:00N 38°32' W 028°37'0 0.0
2018-Apr-22 12:30N 38°32' W 028°37'0 0.6
2018-Apr-22 12:00N 38°31' W 028°37'1 1.3
2018-Apr-22 11:29N 38°32' W 028°36'1 1.4
2018-Apr-22 10:54N 38°31' W 028°36'1 1.3
2018-Apr-22 10:29N 38°31' W 028°36'1 0.9
2018-Apr-22 09:50N 38°30' W 028°37'1 3.3
2018-Apr-22 09:28N 38°30' W 028°38'1 1.9
2018-Apr-22 08:57N 38°30' W 028°40'0 0.3
2018-Apr-22 08:30N 38°30' W 028°40'0 0.9
2018-Apr-22 08:00N 38°30' W 028°40'2 3.4
2018-Apr-22 07:30N 38°29' W 028°42'3 5.5
2018-Apr-22 07:00N 38°29' W 028°46'2 5.0
2018-Apr-22 06:30N 38°29' W 028°49'3 5.4
2018-Apr-22 06:00N 38°29' W 028°53'2 4.9
2018-Apr-22 05:30N 38°29' W 028°56'2 4.3
2018-Apr-22 05:00N 38°29' W 028°58'2 3.8
2018-Apr-22 04:30N 38°29' W 029°01'2 3.9
2018-Apr-22 04:00N 38°30' W 029°03'2 4.0
2018-Apr-22 03:30N 38°30' W 029°06'2 3.8
2018-Apr-22 03:00N 38°30' W 029°08'2 4.4
2018-Apr-22 02:30N 38°30' W 029°11'2 4.9
2018-Apr-22 02:00N 38°29' W 029°14'3 5.3
2018-Apr-22 01:30N 38°29' W 029°18'3 6.0
2018-Apr-22 01:00N 38°29' W 029°21'3 5.6
2018-Apr-22 00:30N 38°29' W 029°25'3 5.0
2018-Apr-22 00:00N 38°29' W 029°28'2 4.6
2018-Apr-21 23:30N 38°28' W 029°31'3 5.1
2018-Apr-21 22:59N 38°28' W 029°35'2 5.1
2018-Apr-21 22:30N 38°28' W 029°38'3 5.5
2018-Apr-21 22:00N 38°28' W 029°41'3 5.3
2018-Apr-21 21:28N 38°28' W 029°45'2 4.8
2018-Apr-21 21:00N 38°28' W 029°48'3 5.0
2018-Apr-21 20:29N 38°28' W 029°51'3 5.7
2018-Apr-21 19:56N 38°28' W 029°55'2 5.1
2018-Apr-21 19:28N 38°28' W 029°58'2 4.8
2018-Apr-21 18:58N 38°28' W 030°01'2 4.2
2018-Apr-21 18:29N 38°28' W 030°04'2 4.1
2018-Apr-21 17:57N 38°28' W 030°06'2 3.9
2018-Apr-21 17:28N 38°28' W 030°09'2 4.1
2018-Apr-21 16:51N 38°28' W 030°12'3 6.3
2018-Apr-21 16:23N 38°28' W 030°16'3 6.5
2018-Apr-21 15:58N 38°28' W 030°19'3 6.5
2018-Apr-21 15:28N 38°28' W 030°23'3 6.2
2018-Apr-21 14:55N 38°28' W 030°28'3 6.1
2018-Apr-21 14:30N 38°28' W 030°31'3 5.8
2018-Apr-21 13:57N 38°28' W 030°35'2 3.9
2018-Apr-21 13:29N 38°28' W 030°37'  

Dump ship's entire track history